Concerto — JJ3855 — position and weather

sailwx.info

Track history (hours):
 
Tides and Currents Weather Stations Pressure Air Temp Water Temp Dewpoint Dewpoint Depression Visibility Wind Speed Wind Dir Waves Ship Positions

Concerto

Last reported at 2018-Jun-19 18:00 UTC. Time now 2018-Jun-19 18:26 UTC.
Position N 34°41' E 135°11'.

Length 74 m; draft 3 m.

Type: Passenger vessel. MMSI: 431000448.

Date/timePositionNaut miles runAvg speedWind from/ knotsBaromVisibWave heightAir tempDewpointWater temp
2018-Jun-19 18:00N 34°41' E 135°11'0 0.0
2018-Jun-19 17:30N 34°41' E 135°11'0 0.0
2018-Jun-19 16:54N 34°41' E 135°11'0 0.0
2018-Jun-19 16:30N 34°41' E 135°11'0 0.0
2018-Jun-19 16:00N 34°41' E 135°11'0 0.0
2018-Jun-19 15:30N 34°41' E 135°11'0 0.0
2018-Jun-19 15:00N 34°41' E 135°11'0 0.0
2018-Jun-19 14:30N 34°41' E 135°11'0 0.0
2018-Jun-19 14:00N 34°41' E 135°11'0 0.0
2018-Jun-19 13:30N 34°41' E 135°11'0 0.0
2018-Jun-19 13:00N 34°41' E 135°11'0 0.0
2018-Jun-19 12:25N 34°41' E 135°11'3 6.5
2018-Jun-19 12:00N 34°38' E 135°11'4 8.7
2018-Jun-19 11:31N 34°37' E 135°06'4 7.1
2018-Jun-19 11:00N 34°38' E 135°10'3 6.1
2018-Jun-19 10:30N 34°41' E 135°11'0 0.0
2018-Jun-19 10:00N 34°41' E 135°11'3 6.0
2018-Jun-19 09:30N 34°38' E 135°10'3 5.0
2018-Jun-19 09:00N 34°37' E 135°07'4 8.0
2018-Jun-19 08:31N 34°40' E 135°11'1 2.2
2018-Jun-19 07:55N 34°41' E 135°11'0 0.0
2018-Jun-19 07:25N 34°41' E 135°11'0 0.0
2018-Jun-19 06:55N 34°41' E 135°11'3 6.8
2018-Jun-19 06:30N 34°38' E 135°11'1 1.4
2018-Jun-19 06:00N 34°38' E 135°10'3 5.9
2018-Jun-19 05:30N 34°41' E 135°11'0 0.0
2018-Jun-19 05:00N 34°41' E 135°11'2 4.3
2018-Jun-19 04:30N 34°39' E 135°11'5 8.5
2018-Jun-19 03:59N 34°37' E 135°06'3 6.5
2018-Jun-19 03:30N 34°38' E 135°10'3 6.5
2018-Jun-19 03:00N 34°41' E 135°11'0 0.0
2018-Jun-19 02:25N 34°41' E 135°11'0 0.0
2018-Jun-19 01:55N 34°41' E 135°11'0 0.0
2018-Jun-19 00:55N 34°41' E 135°11'0 0.0
2018-Jun-19 00:25N 34°41' E 135°11'0 0.0
2018-Jun-18 23:43N 34°41' E 135°11'0 0.0
2018-Jun-18 23:19N 34°41' E 135°11'0 0.0
2018-Jun-18 22:55N 34°41' E 135°11'0 0.0
2018-Jun-18 22:19N 34°41' E 135°11'0 0.0
2018-Jun-18 21:55N 34°41' E 135°11'0 0.0
2018-Jun-18 21:25N 34°41' E 135°11'0 0.0
2018-Jun-18 20:55N 34°41' E 135°11'0 0.0
2018-Jun-18 20:25N 34°41' E 135°11'0 0.0
2018-Jun-18 19:43N 34°41' E 135°11'0 0.0
2018-Jun-18 19:13N 34°41' E 135°11'0 0.0
2018-Jun-18 18:55N 34°41' E 135°11'0 0.0
2018-Jun-18 18:25N 34°41' E 135°11'0 0.0
2018-Jun-18 17:55N 34°41' E 135°11'0 0.0
2018-Jun-18 17:25N 34°41' E 135°11'0 0.0
2018-Jun-18 16:49N 34°41' E 135°11'0 0.0
2018-Jun-18 16:25N 34°41' E 135°11'0 0.0
2018-Jun-18 15:55N 34°41' E 135°11'0 0.0
2018-Jun-18 15:19N 34°41' E 135°11'0 0.0
2018-Jun-18 14:55N 34°41' E 135°11'0 0.0
2018-Jun-18 14:25N 34°41' E 135°11'0 0.0
2018-Jun-18 13:55N 34°41' E 135°11'0 0.0
2018-Jun-18 13:25N 34°41' E 135°11'0 0.0
2018-Jun-18 12:55N 34°41' E 135°11'0 0.0
2018-Jun-18 12:26N 34°41' E 135°11'3 6.5
2018-Jun-18 12:00N 34°38' E 135°11'4 8.2
2018-Jun-18 11:30N 34°37' E 135°06'3 6.5
2018-Jun-18 11:00N 34°38' E 135°10'3 6.4
2018-Jun-18 10:30N 34°41' E 135°11'0 0.0
2018-Jun-18 09:58N 34°41' E 135°11'2 5.1
2018-Jun-18 09:30N 34°38' E 135°11'4 7.3
2018-Jun-18 09:00N 34°37' E 135°07'4 8.5
2018-Jun-18 08:30N 34°39' E 135°11'1 2.5
2018-Jun-18 07:56N 34°41' E 135°11'0 0.0
2018-Jun-18 07:26N 34°41' E 135°11'0 0.0
2018-Jun-18 06:56N 34°41' E 135°11'2 5.3
2018-Jun-18 06:29N 34°38' E 135°11'1 2.8
2018-Jun-18 06:00N 34°38' E 135°09'3 6.6
2018-Jun-18 05:30N 34°41' E 135°11'0 0.0
2018-Jun-18 04:51N 34°41' E 135°11'2 5.6
2018-Jun-18 04:30N 34°39' E 135°11'4 7.3
2018-Jun-18 04:00N 34°37' E 135°08'2 3.6
2018-Jun-18 03:30N 34°38' E 135°09'3 5.8
2018-Jun-18 02:56N 34°41' E 135°11'0 0.0
2018-Jun-18 02:25N 34°41' E 135°11'0 0.0
2018-Jun-18 01:55N 34°41' E 135°11'0 0.0
2018-Jun-18 01:13N 34°41' E 135°11'0 0.0
2018-Jun-18 00:49N 34°41' E 135°11'0 0.0
2018-Jun-18 00:25N 34°41' E 135°11'0 0.0
2018-Jun-17 23:55N 34°41' E 135°11'0 0.0
2018-Jun-17 23:25N 34°41' E 135°11'0 0.0
2018-Jun-17 22:55N 34°41' E 135°11'0 0.0
2018-Jun-17 22:25N 34°41' E 135°11'0 0.0
2018-Jun-17 21:55N 34°41' E 135°11'0 0.0
2018-Jun-17 21:25N 34°41' E 135°11'0 0.0
2018-Jun-17 20:55N 34°41' E 135°11'0 0.0
2018-Jun-17 20:25N 34°41' E 135°11'0 0.0
2018-Jun-17 19:55N 34°41' E 135°11'0 0.0
2018-Jun-17 19:19N 34°41' E 135°11'0 0.0
2018-Jun-17 18:49N 34°41' E 135°11'0 0.0
2018-Jun-17 18:25N 34°41' E 135°11'0 0.0
2018-Jun-17 17:49N 34°41' E 135°11'0 0.0
2018-Jun-17 17:25N 34°41' E 135°11'0 0.0
2018-Jun-17 16:55N 34°41' E 135°11'0 0.0
2018-Jun-17 16:19N 34°41' E 135°11'0 0.0
2018-Jun-17 15:55N 34°41' E 135°11'0 0.0
2018-Jun-17 15:25N 34°41' E 135°11'0 0.0
2018-Jun-17 14:55N 34°41' E 135°11'0 0.0
2018-Jun-17 14:25N 34°41' E 135°11'0 0.0
2018-Jun-17 13:49N 34°41' E 135°11'0 0.0
2018-Jun-17 13:07N 34°41' E 135°11'0 0.0
2018-Jun-17 12:55N 34°41' E 135°11'0 0.0
2018-Jun-17 12:26N 34°41' E 135°11'3 6.4
2018-Jun-17 12:00N 34°38' E 135°11'4 8.0
2018-Jun-17 11:30N 34°37' E 135°06'3 6.5
2018-Jun-17 11:00N 34°38' E 135°10'3 5.5
2018-Jun-17 10:27N 34°41' E 135°11'0 0.0
2018-Jun-17 09:51N 34°41' E 135°11'2 6.6
2018-Jun-17 09:30N 34°39' E 135°11'3 6.5
2018-Jun-17 09:00N 34°37' E 135°07'4 7.9
2018-Jun-17 08:30N 34°40' E 135°11'1 2.2
2018-Jun-17 07:56N 34°41' E 135°11'0 0.0
2018-Jun-17 07:26N 34°41' E 135°11'0 0.0
2018-Jun-17 06:56N 34°41' E 135°11'2 5.0
2018-Jun-17 06:30N 34°39' E 135°11'1 2.8
2018-Jun-17 06:00N 34°38' E 135°10'3 6.4
2018-Jun-17 05:30N 34°41' E 135°11'0 0.0
2018-Jun-17 04:50N 34°41' E 135°11'2 6.1
2018-Jun-17 04:30N 34°39' E 135°11'4 7.8
2018-Jun-17 04:00N 34°37' E 135°07'3 5.0
2018-Jun-17 03:30N 34°38' E 135°10'3 6.2
2018-Jun-17 03:00N 34°41' E 135°11'0 0.0
2018-Jun-17 02:29N 34°41' E 135°11'0 0.0
2018-Jun-17 01:53N 34°41' E 135°11'0 0.0
2018-Jun-17 01:28N 34°41' E 135°11'0 0.0
2018-Jun-17 00:53N 34°41' E 135°11'0 0.0
2018-Jun-17 00:29N 34°41' E 135°11'0 0.0
2018-Jun-16 23:52N 34°41' E 135°11'0 0.0
2018-Jun-16 23:29N 34°41' E 135°11'0 0.0
2018-Jun-16 22:59N 34°41' E 135°11'0 0.0
2018-Jun-16 22:29N 34°41' E 135°11'0 0.0
2018-Jun-16 21:59N 34°41' E 135°11'0 0.0
2018-Jun-16 21:29N 34°41' E 135°11'0 0.0
2018-Jun-16 20:59N 34°41' E 135°11'0 0.0
2018-Jun-16 20:29N 34°41' E 135°11'0 0.0
2018-Jun-16 19:59N 34°41' E 135°11'0 0.0
2018-Jun-16 19:29N 34°41' E 135°11'0 0.0
2018-Jun-16 18:59N 34°41' E 135°11'0 0.0
2018-Jun-16 18:28N 34°41' E 135°11'0 0.0
2018-Jun-16 17:59N 34°41' E 135°11'0 0.0
2018-Jun-16 17:29N 34°41' E 135°11'0 0.0
2018-Jun-16 16:53N 34°41' E 135°11'0 0.0
2018-Jun-16 16:28N 34°41' E 135°11'0 0.0
2018-Jun-16 15:59N 34°41' E 135°11'0 0.0
2018-Jun-16 15:29N 34°41' E 135°11'0 0.0
2018-Jun-16 14:58N 34°41' E 135°11'0 0.0
2018-Jun-16 14:29N 34°41' E 135°11'0 0.0
2018-Jun-16 13:59N 34°41' E 135°11'0 0.0
2018-Jun-16 13:29N 34°41' E 135°11'0 0.0
2018-Jun-16 12:59N 34°41' E 135°11'0 0.0
2018-Jun-16 12:29N 34°41' E 135°11'2 5.0
2018-Jun-16 12:00N 34°38' E 135°11'4 7.6
2018-Jun-16 11:31N 34°37' E 135°06'4 7.2
2018-Jun-16 11:00N 34°39' E 135°11'2 4.7
2018-Jun-16 10:31N 34°41' E 135°11'0 0.0
2018-Jun-16 09:55N 34°41' E 135°11'3 6.9
2018-Jun-16 09:30N 34°38' E 135°10'2 4.7
2018-Jun-16 09:00N 34°37' E 135°08'4 8.0
2018-Jun-16 08:28N 34°40' E 135°11'1 1.3
2018-Jun-16 08:00N 34°41' E 135°11'0 0.0
2018-Jun-16 07:20N 34°41' E 135°11'0 0.0
2018-Jun-16 06:51N 34°41' E 135°11'2 5.6
2018-Jun-16 06:30N 34°39' E 135°11'1 2.6
2018-Jun-16 06:00N 34°38' E 135°10'3 4.7
2018-Jun-16 05:26N 34°41' E 135°11'0 0.0
2018-Jun-16 04:58N 34°41' E 135°11'2 4.3
2018-Jun-16 04:30N 34°39' E 135°11'4 8.4
2018-Jun-16 04:00N 34°37' E 135°07'3 5.6
2018-Jun-16 03:30N 34°38' E 135°10'3 5.8
2018-Jun-16 03:00N 34°41' E 135°11'0 0.0
2018-Jun-16 02:28N 34°41' E 135°11'0 0.0
2018-Jun-16 01:58N 34°41' E 135°11'0 0.0
2018-Jun-16 01:27N 34°41' E 135°11'0 0.0
2018-Jun-16 00:58N 34°41' E 135°11'0 0.0
2018-Jun-16 00:28N 34°41' E 135°11'0 0.0
2018-Jun-15 23:57N 34°41' E 135°11'0 0.0
2018-Jun-15 23:27N 34°41' E 135°11'0 0.0
2018-Jun-15 22:57N 34°41' E 135°11'0 0.0
2018-Jun-15 22:28N 34°41' E 135°11'0 0.0
2018-Jun-15 21:57N 34°41' E 135°11'0 0.0
2018-Jun-15 21:21N 34°41' E 135°11'0 0.0
2018-Jun-15 20:57N 34°41' E 135°11'0 0.0
2018-Jun-15 20:27N 34°41' E 135°11'0 0.0
2018-Jun-15 19:45N 34°41' E 135°11'0 0.0
2018-Jun-15 19:27N 34°41' E 135°11'0 0.0
2018-Jun-15 18:51N 34°41' E 135°11'0 0.0
2018-Jun-15 18:27N 34°41' E 135°11'0 0.0
2018-Jun-15 17:45N 34°41' E 135°11'0 0.0
2018-Jun-15 17:27N 34°41' E 135°11'0 0.0
2018-Jun-15 16:58N 34°41' E 135°11'0 0.0
2018-Jun-15 16:27N 34°41' E 135°11'0 0.0
2018-Jun-15 15:57N 34°41' E 135°11'0 0.0
2018-Jun-15 15:27N 34°41' E 135°11'0 0.0
2018-Jun-15 14:57N 34°41' E 135°11'0 0.0
2018-Jun-15 14:27N 34°41' E 135°11'0 0.0
2018-Jun-15 13:57N 34°41' E 135°11'0 0.0
2018-Jun-15 13:28N 34°41' E 135°11'0 0.0
2018-Jun-15 12:57N 34°41' E 135°11'0 0.0
2018-Jun-15 12:27N 34°41' E 135°11'2 5.0
2018-Jun-15 12:00N 34°39' E 135°11'5 9.4
2018-Jun-15 11:30N 34°37' E 135°06'3 6.8
2018-Jun-15 11:00N 34°38' E 135°10'3 6.2
2018-Jun-15 10:29N 34°41' E 135°11'0 0.0
2018-Jun-15 09:56N 34°41' E 135°11'2 5.9
2018-Jun-15 09:30N 34°38' E 135°11'4 7.1
2018-Jun-15 09:00N 34°37' E 135°07'4 8.9
2018-Jun-15 08:30N 34°40' E 135°11'1 1.9
2018-Jun-15 07:51N 34°41' E 135°11'0 0.0
2018-Jun-15 07:27N 34°41' E 135°11'0 0.0
2018-Jun-15 06:57N 34°41' E 135°11'2 5.2
2018-Jun-15 06:30N 34°39' E 135°11'1 3.0
2018-Jun-15 06:00N 34°38' E 135°10'3 6.3
2018-Jun-15 05:30N 34°41' E 135°11'0 0.0
2018-Jun-15 04:56N 34°41' E 135°11'2 4.9
2018-Jun-15 04:30N 34°39' E 135°11'3 6.4
2018-Jun-15 04:00N 34°37' E 135°08'2 3.2
2018-Jun-15 03:30N 34°38' E 135°10'3 6.4
2018-Jun-15 03:00N 34°41' E 135°11'0 0.0
2018-Jun-15 02:29N 34°41' E 135°11'0 0.0
2018-Jun-15 01:59N 34°41' E 135°11'0 0.0
2018-Jun-15 01:29N 34°41' E 135°11'0 0.0
2018-Jun-15 00:59N 34°41' E 135°11'0 0.0
2018-Jun-15 00:29N 34°41' E 135°11'0 0.0
2018-Jun-14 23:59N 34°41' E 135°11'0 0.0
2018-Jun-14 23:29N 34°41' E 135°11'0 0.0
2018-Jun-14 22:35N 34°41' E 135°11'0 0.0
2018-Jun-14 22:29N 34°41' E 135°11'0 0.0
2018-Jun-14 21:23N 34°41' E 135°11'0 0.0
2018-Jun-14 20:59N 34°41' E 135°11'0 0.0
2018-Jun-14 20:23N 34°41' E 135°11'0 0.0
2018-Jun-14 19:59N 34°41' E 135°11'0 0.0
2018-Jun-14 19:23N 34°41' E 135°11'0 0.0
2018-Jun-14 18:59N 34°41' E 135°11'0 0.0
2018-Jun-14 18:29N 34°41' E 135°11'0 0.0
2018-Jun-14 17:59N 34°41' E 135°11'0 0.0
2018-Jun-14 17:29N 34°41' E 135°11'0 0.0
2018-Jun-14 16:59N 34°41' E 135°11'0 0.0
2018-Jun-14 16:29N 34°41' E 135°11'0 0.0
2018-Jun-14 15:59N 34°41' E 135°11'0 0.0
2018-Jun-14 15:29N 34°41' E 135°11'0 0.0
2018-Jun-14 14:59N 34°41' E 135°11'0 0.0
2018-Jun-14 14:29N 34°41' E 135°11'0 0.0
2018-Jun-14 13:59N 34°41' E 135°11'0 0.0
2018-Jun-14 13:29N 34°41' E 135°11'0 0.0
2018-Jun-14 12:59N 34°41' E 135°11'0 0.0
2018-Jun-14 12:24N 34°41' E 135°11'3 6.5
2018-Jun-14 12:01N 34°38' E 135°11'3 5.5
2018-Jun-14 11:30N 34°37' E 135°08'1 2.5
2018-Jun-14 11:00N 34°38' E 135°09'3 6.4
2018-Jun-14 10:30N 34°41' E 135°11'0 0.0
2018-Jun-14 10:00N 34°41' E 135°11'3 5.5
2018-Jun-14 09:30N 34°38' E 135°11'3 6.4
2018-Jun-14 09:00N 34°37' E 135°07'4 8.5
2018-Jun-14 08:30N 34°39' E 135°11'1 2.3
2018-Jun-14 07:55N 34°41' E 135°11'0 0.0
2018-Jun-14 07:19N 34°41' E 135°11'0 0.0
2018-Jun-14 06:55N 34°41' E 135°11'3 6.5
2018-Jun-14 06:30N 34°38' E 135°11'1 1.6
2018-Jun-14 06:00N 34°38' E 135°10'3 5.9
2018-Jun-14 05:30N 34°41' E 135°11'0 0.0
2018-Jun-14 04:59N 34°41' E 135°11'2 4.8
2018-Jun-14 04:30N 34°39' E 135°11'4 8.9
2018-Jun-14 04:00N 34°37' E 135°06'3 7.0
2018-Jun-14 03:30N 34°38' E 135°10'3 5.4
2018-Jun-14 03:00N 34°41' E 135°11'0 0.0
2018-Jun-14 02:26N 34°41' E 135°11'0 0.0
2018-Jun-14 01:56N 34°41' E 135°11'0 0.0
2018-Jun-14 01:26N 34°41' E 135°11'0 0.0
2018-Jun-14 00:56N 34°41' E 135°11'0 0.0
2018-Jun-14 00:26N 34°41' E 135°11'0 0.0
2018-Jun-13 23:56N 34°41' E 135°11'0 0.0
2018-Jun-13 23:14N 34°41' E 135°11'0 0.0
2018-Jun-13 22:56N 34°41' E 135°11'0 0.0
2018-Jun-13 22:26N 34°41' E 135°11'0 0.0
2018-Jun-13 21:50N 34°41' E 135°11'0 0.0
2018-Jun-13 21:26N 34°41' E 135°11'0 0.0
2018-Jun-13 20:56N 34°41' E 135°11'0 0.0
2018-Jun-13 20:26N 34°41' E 135°11'0 0.0
2018-Jun-13 19:56N 34°41' E 135°11'0 0.0
2018-Jun-13 19:26N 34°41' E 135°11'0 0.0
2018-Jun-13 18:56N 34°41' E 135°11'0 0.0
2018-Jun-13 18:20N 34°41' E 135°11'0 0.0
2018-Jun-13 17:56N 34°41' E 135°11'0 0.0
2018-Jun-13 17:26N 34°41' E 135°11'0 0.0
2018-Jun-13 16:50N 34°41' E 135°11'0 0.0
2018-Jun-13 16:26N 34°41' E 135°11'0 0.0
2018-Jun-13 15:56N 34°41' E 135°11'0 0.0
2018-Jun-13 15:26N 34°41' E 135°11'0 0.0
2018-Jun-13 14:50N 34°41' E 135°11'0 0.0
2018-Jun-13 14:20N 34°41' E 135°11'0 0.0
2018-Jun-13 13:44N 34°41' E 135°11'0 0.0
2018-Jun-13 13:26N 34°41' E 135°11'0 0.0
2018-Jun-13 12:56N 34°41' E 135°11'0 0.0
2018-Jun-13 12:27N 34°41' E 135°11'3 6.0
2018-Jun-13 12:00N 34°38' E 135°11'4 8.1
2018-Jun-13 11:30N 34°37' E 135°06'3 6.7
2018-Jun-13 11:00N 34°38' E 135°10'3 6.3
2018-Jun-13 10:30N 34°41' E 135°11'0 0.0
2018-Jun-13 09:55N 34°41' E 135°11'3 6.5
2018-Jun-13 09:30N 34°38' E 135°11'4 7.2
2018-Jun-13 09:00N 34°37' E 135°07'4 8.8
2018-Jun-13 08:31N 34°39' E 135°11'1 2.1
2018-Jun-13 07:50N 34°41' E 135°11'0 0.0
2018-Jun-13 07:08N 34°41' E 135°11'0 0.0
2018-Jun-13 06:57N 34°41' E 135°11'3 6.7
2018-Jun-13 06:30N 34°38' E 135°10'0 0.6
2018-Jun-13 06:00N 34°38' E 135°10'3 6.2
2018-Jun-13 05:30N 34°41' E 135°11'0 0.0
2018-Jun-13 04:55N 34°41' E 135°11'2 4.0
2018-Jun-13 04:30N 34°39' E 135°11'3 5.7
2018-Jun-13 04:00N 34°37' E 135°09'1 2.3
2018-Jun-13 03:30N 34°38' E 135°10'3 6.0
2018-Jun-13 03:00N 34°41' E 135°11'0 0.0
2018-Jun-13 02:30N 34°41' E 135°11'0 0.0
2018-Jun-13 02:00N 34°41' E 135°11'0 0.0
2018-Jun-13 01:30N 34°41' E 135°11'0 0.0
2018-Jun-13 01:00N 34°41' E 135°11'0 0.0
2018-Jun-13 00:30N 34°41' E 135°11'0 0.0
2018-Jun-13 00:00N 34°41' E 135°11'0 0.0
2018-Jun-12 23:24N 34°41' E 135°11'0 0.0
2018-Jun-12 23:00N 34°41' E 135°11'0 0.0
2018-Jun-12 22:30N 34°41' E 135°11'0 0.0
2018-Jun-12 22:00N 34°41' E 135°11'0 0.0
2018-Jun-12 21:30N 34°41' E 135°11'0 0.0
2018-Jun-12 21:00N 34°41' E 135°11'0 0.0
2018-Jun-12 20:30N 34°41' E 135°11'0 0.0
2018-Jun-12 20:00N 34°41' E 135°11'0 0.0
2018-Jun-12 19:30N 34°41' E 135°11'0 0.0
2018-Jun-12 19:00N 34°41' E 135°11'0 0.0
2018-Jun-12 18:30N 34°41' E 135°11'0 0.0
2018-Jun-12 18:00N 34°41' E 135°11'0 0.0
2018-Jun-12 17:30N 34°41' E 135°11'0 0.0
2018-Jun-12 17:00N 34°41' E 135°11'0 0.0
2018-Jun-12 16:30N 34°41' E 135°11'0 0.0
2018-Jun-12 16:00N 34°41' E 135°11'0 0.0
2018-Jun-12 15:30N 34°41' E 135°11'0 0.0
2018-Jun-12 15:00N 34°41' E 135°11'0 0.0
2018-Jun-12 14:24N 34°41' E 135°11'0 0.0
2018-Jun-12 14:00N 34°41' E 135°11'0 0.0
2018-Jun-12 13:30N 34°41' E 135°11'0 0.0
2018-Jun-12 12:54N 34°41' E 135°11'0 0.0
2018-Jun-12 12:30N 34°41' E 135°11'3 5.1
2018-Jun-12 12:00N 34°38' E 135°11'4 8.0
2018-Jun-12 11:30N 34°37' E 135°06'3 5.8
2018-Jun-12 11:00N 34°38' E 135°09'3 6.5
2018-Jun-12 10:31N 34°41' E 135°11'0 0.0
2018-Jun-12 09:58N 34°41' E 135°11'3 6.2
2018-Jun-12 09:30N 34°38' E 135°10'3 5.8
2018-Jun-12 09:00N 34°37' E 135°07'4 8.7
2018-Jun-12 08:30N 34°40' E 135°11'1 2.2
2018-Jun-12 07:57N 34°41' E 135°11'0 0.0
2018-Jun-12 07:27N 34°41' E 135°11'0 0.0
2018-Jun-12 06:58N 34°41' E 135°11'3 6.2
2018-Jun-12 06:30N 34°38' E 135°10'0 0.5
2018-Jun-12 06:00N 34°38' E 135°10'3 5.5
2018-Jun-12 05:29N 34°41' E 135°11'0 0.0
2018-Jun-12 04:50N 34°41' E 135°11'2 6.3
2018-Jun-12 04:30N 34°39' E 135°11'4 9.0
2018-Jun-12 04:00N 34°37' E 135°06'3 6.1
2018-Jun-12 03:30N 34°38' E 135°10'3 6.0
2018-Jun-12 03:00N 34°41' E 135°11'0 0.0
2018-Jun-12 02:26N 34°41' E 135°11'0 0.0
2018-Jun-12 01:56N 34°41' E 135°11'0 0.0
2018-Jun-12 01:20N 34°41' E 135°11'0 0.0
2018-Jun-12 00:56N 34°41' E 135°11'0 0.0
2018-Jun-12 00:26N 34°41' E 135°11'0 0.0
2018-Jun-11 23:56N 34°41' E 135°11'0 0.0
2018-Jun-11 23:14N 34°41' E 135°11'0 0.0
2018-Jun-11 22:56N 34°41' E 135°11'0 0.0
2018-Jun-11 22:26N 34°41' E 135°11'0 0.0
2018-Jun-11 21:56N 34°41' E 135°11'0 0.0
2018-Jun-11 21:08N 34°41' E 135°11'0 0.0
2018-Jun-11 20:44N 34°41' E 135°11'0 0.0
2018-Jun-11 20:20N 34°41' E 135°11'0 0.0
2018-Jun-11 19:56N 34°41' E 135°11'0 0.0
2018-Jun-11 19:26N 34°41' E 135°11'0 0.0
2018-Jun-11 18:56N 34°41' E 135°11'0 0.0
2018-Jun-11 18:20N 34°41' E 135°11'0 0.0
2018-Jun-11 17:56N 34°41' E 135°11'0 0.0
2018-Jun-11 17:26N 34°41' E 135°11'0 0.0
2018-Jun-11 16:56N 34°41' E 135°11'0 0.0
2018-Jun-11 16:20N 34°41' E 135°11'0 0.0
2018-Jun-11 15:56N 34°41' E 135°11'0 0.0
2018-Jun-11 15:26N 34°41' E 135°11'0 0.0
2018-Jun-11 14:56N 34°41' E 135°11'0 0.0
2018-Jun-11 14:26N 34°41' E 135°11'0 0.0
2018-Jun-11 13:56N 34°41' E 135°11'0 0.0
2018-Jun-11 13:26N 34°41' E 135°11'0 0.0
2018-Jun-11 12:50N 34°41' E 135°11'0 0.0
2018-Jun-11 12:26N 34°41' E 135°11'2 4.8
2018-Jun-11 12:01N 34°39' E 135°11'4 7.5
2018-Jun-11 11:30N 34°37' E 135°07'2 4.2
2018-Jun-11 11:00N 34°38' E 135°10'3 6.3
2018-Jun-11 10:30N 34°41' E 135°11'0 0.0
2018-Jun-11 09:58N 34°41' E 135°11'2 5.4
2018-Jun-11 09:30N 34°38' E 135°11'4 7.4
2018-Jun-11 09:01N 34°37' E 135°07'4 8.7
2018-Jun-11 08:30N 34°39' E 135°11'1 2.2
2018-Jun-11 07:54N 34°41' E 135°11'0 0.0
2018-Jun-11 07:30N 34°41' E 135°11'0 0.0
2018-Jun-11 07:00N 34°41' E 135°11'3 5.4
2018-Jun-11 06:30N 34°38' E 135°11'1 1.9
2018-Jun-11 06:01N 34°38' E 135°10'3 5.9
2018-Jun-11 05:29N 34°41' E 135°11'0 0.0
2018-Jun-11 04:59N 34°41' E 135°11'2 4.6
2018-Jun-11 04:31N 34°39' E 135°11'4 9.0
2018-Jun-11 04:00N 34°37' E 135°06'3 6.4
2018-Jun-11 03:30N 34°38' E 135°10'3 5.6
2018-Jun-11 03:00N 34°41' E 135°11'0 0.0
2018-Jun-11 02:31N 34°41' E 135°11'0 0.0
2018-Jun-11 02:01N 34°41' E 135°11'0 0.0
2018-Jun-11 01:30N 34°41' E 135°11'0 0.0
2018-Jun-11 01:00N 34°41' E 135°11'0 0.0
2018-Jun-11 00:31N 34°41' E 135°11'0 0.0
2018-Jun-11 00:01N 34°41' E 135°11'0 0.0
2018-Jun-10 23:30N 34°41' E 135°11'0 0.0
2018-Jun-10 23:00N 34°41' E 135°11'0 0.0
2018-Jun-10 22:28N 34°41' E 135°11'0 0.0
2018-Jun-10 22:00N 34°41' E 135°11'0 0.0
2018-Jun-10 21:30N 34°41' E 135°11'0 0.0
2018-Jun-10 21:01N 34°41' E 135°11'0 0.0
2018-Jun-10 20:30N 34°41' E 135°11'0 0.0
2018-Jun-10 20:00N 34°41' E 135°11'0 0.0
2018-Jun-10 19:30N 34°41' E 135°11'0 0.0
2018-Jun-10 19:00N 34°41' E 135°11'0 0.0
2018-Jun-10 18:31N 34°41' E 135°11'0 0.0
2018-Jun-10 18:00N 34°41' E 135°11'0 0.0
2018-Jun-10 17:31N 34°41' E 135°11'0 0.0
2018-Jun-10 17:01N 34°41' E 135°11'0 0.0
2018-Jun-10 16:31N 34°41' E 135°11'0 0.0
2018-Jun-10 16:01N 34°41' E 135°11'0 0.0
2018-Jun-10 15:30N 34°41' E 135°11'0 0.0
2018-Jun-10 15:01N 34°41' E 135°11'0 0.0
2018-Jun-10 14:31N 34°41' E 135°11'0 0.0
2018-Jun-10 13:30N 34°41' E 135°11'0 0.0
2018-Jun-10 13:01N 34°41' E 135°11'0 0.0
2018-Jun-10 12:31N 34°41' E 135°11'3 5.1
2018-Jun-10 12:00N 34°38' E 135°10'4 7.6
2018-Jun-10 11:30N 34°36' E 135°06'3 6.9
2018-Jun-10 11:01N 34°38' E 135°10'3 5.8
2018-Jun-10 10:31N 34°41' E 135°11'0 0.0
2018-Jun-10 09:56N 34°41' E 135°11'3 5.9
2018-Jun-10 09:30N 34°38' E 135°11'3 6.5
2018-Jun-10 09:00N 34°37' E 135°07'4 8.6
2018-Jun-10 08:30N 34°40' E 135°11'1 2.0
2018-Jun-10 07:57N 34°41' E 135°11'0 0.0
2018-Jun-10 07:27N 34°41' E 135°11'0 0.0
2018-Jun-10 06:57N 34°41' E 135°11'2 5.0
2018-Jun-10 06:30N 34°39' E 135°11'1 2.6
2018-Jun-10 06:00N 34°38' E 135°10'3 5.8
2018-Jun-10 05:30N 34°41' E 135°11'0 0.0
2018-Jun-10 04:57N 34°41' E 135°11'2 5.0
2018-Jun-10 04:30N 34°39' E 135°11'4 7.8
2018-Jun-10 03:59N 34°37' E 135°07'3 5.6
2018-Jun-10 03:30N 34°38' E 135°10'3 6.1
2018-Jun-10 03:00N 34°41' E 135°11'0 0.0
2018-Jun-10 02:30N 34°41' E 135°11'0 0.0
2018-Jun-10 01:54N 34°41' E 135°11'0 0.0
2018-Jun-10 01:30N 34°41' E 135°11'0 0.0
2018-Jun-10 01:00N 34°41' E 135°11'0 0.0
2018-Jun-10 00:24N 34°41' E 135°11'0 0.0
2018-Jun-09 23:48N 34°41' E 135°11'0 0.0
2018-Jun-09 23:24N 34°41' E 135°11'0 0.0
2018-Jun-09 23:00N 34°41' E 135°11'0 0.0
2018-Jun-09 22:30N 34°41' E 135°11'0 0.0
2018-Jun-09 22:00N 34°41' E 135°11'0 0.0
2018-Jun-09 21:30N 34°41' E 135°11'0 0.0
2018-Jun-09 20:54N 34°41' E 135°11'0 0.0
2018-Jun-09 20:30N 34°41' E 135°11'0 0.0
2018-Jun-09 20:00N 34°41' E 135°11'0 0.0
2018-Jun-09 19:30N 34°41' E 135°11'0 0.0
2018-Jun-09 18:54N 34°41' E 135°11'0 0.0
2018-Jun-09 18:30N 34°41' E 135°11'0 0.0
2018-Jun-09 18:00N 34°41' E 135°11'  
Track history (hours):
 
Tides and Currents Weather Stations Pressure Air Temp Water Temp Dewpoint Dewpoint Depression Visibility Wind Speed Wind Dir Waves Ship Positions

Concerto

Last reported at 2018-Jun-19 18:00 UTC. Time now 2018-Jun-19 18:26 UTC.
Position N 34°41' E 135°11'.

Length 74 m; draft 3 m.

Type: Passenger vessel. MMSI: 431000448.

Date/timePositionNaut miles runAvg speedWind from/ knotsBaromVisibWave heightAir tempDewpointWater temp
2018-Jun-19 18:00N 34°41' E 135°11'0 0.0
2018-Jun-19 17:30N 34°41' E 135°11'0 0.0
2018-Jun-19 16:54N 34°41' E 135°11'0 0.0
2018-Jun-19 16:30N 34°41' E 135°11'0 0.0
2018-Jun-19 16:00N 34°41' E 135°11'0 0.0
2018-Jun-19 15:30N 34°41' E 135°11'0 0.0
2018-Jun-19 15:00N 34°41' E 135°11'0 0.0
2018-Jun-19 14:30N 34°41' E 135°11'0 0.0
2018-Jun-19 14:00N 34°41' E 135°11'0 0.0
2018-Jun-19 13:30N 34°41' E 135°11'0 0.0
2018-Jun-19 13:00N 34°41' E 135°11'0 0.0
2018-Jun-19 12:25N 34°41' E 135°11'3 6.5
2018-Jun-19 12:00N 34°38' E 135°11'4 8.7
2018-Jun-19 11:31N 34°37' E 135°06'4 7.1
2018-Jun-19 11:00N 34°38' E 135°10'3 6.1
2018-Jun-19 10:30N 34°41' E 135°11'0 0.0
2018-Jun-19 10:00N 34°41' E 135°11'3 6.0
2018-Jun-19 09:30N 34°38' E 135°10'3 5.0
2018-Jun-19 09:00N 34°37' E 135°07'4 8.0
2018-Jun-19 08:31N 34°40' E 135°11'1 2.2
2018-Jun-19 07:55N 34°41' E 135°11'0 0.0
2018-Jun-19 07:25N 34°41' E 135°11'0 0.0
2018-Jun-19 06:55N 34°41' E 135°11'3 6.8
2018-Jun-19 06:30N 34°38' E 135°11'1 1.4
2018-Jun-19 06:00N 34°38' E 135°10'3 5.9
2018-Jun-19 05:30N 34°41' E 135°11'0 0.0
2018-Jun-19 05:00N 34°41' E 135°11'2 4.3
2018-Jun-19 04:30N 34°39' E 135°11'5 8.5
2018-Jun-19 03:59N 34°37' E 135°06'3 6.5
2018-Jun-19 03:30N 34°38' E 135°10'3 6.5
2018-Jun-19 03:00N 34°41' E 135°11'0 0.0
2018-Jun-19 02:25N 34°41' E 135°11'0 0.0
2018-Jun-19 01:55N 34°41' E 135°11'0 0.0
2018-Jun-19 00:55N 34°41' E 135°11'0 0.0
2018-Jun-19 00:25N 34°41' E 135°11'0 0.0
2018-Jun-18 23:43N 34°41' E 135°11'0 0.0
2018-Jun-18 23:19N 34°41' E 135°11'0 0.0
2018-Jun-18 22:55N 34°41' E 135°11'0 0.0
2018-Jun-18 22:19N 34°41' E 135°11'0 0.0
2018-Jun-18 21:55N 34°41' E 135°11'0 0.0
2018-Jun-18 21:25N 34°41' E 135°11'0 0.0
2018-Jun-18 20:55N 34°41' E 135°11'0 0.0
2018-Jun-18 20:25N 34°41' E 135°11'0 0.0
2018-Jun-18 19:43N 34°41' E 135°11'0 0.0
2018-Jun-18 19:13N 34°41' E 135°11'0 0.0
2018-Jun-18 18:55N 34°41' E 135°11'0 0.0
2018-Jun-18 18:25N 34°41' E 135°11'0 0.0
2018-Jun-18 17:55N 34°41' E 135°11'0 0.0
2018-Jun-18 17:25N 34°41' E 135°11'0 0.0
2018-Jun-18 16:49N 34°41' E 135°11'0 0.0
2018-Jun-18 16:25N 34°41' E 135°11'0 0.0
2018-Jun-18 15:55N 34°41' E 135°11'0 0.0
2018-Jun-18 15:19N 34°41' E 135°11'0 0.0
2018-Jun-18 14:55N 34°41' E 135°11'0 0.0
2018-Jun-18 14:25N 34°41' E 135°11'0 0.0
2018-Jun-18 13:55N 34°41' E 135°11'0 0.0
2018-Jun-18 13:25N 34°41' E 135°11'0 0.0
2018-Jun-18 12:55N 34°41' E 135°11'0 0.0
2018-Jun-18 12:26N 34°41' E 135°11'3 6.5
2018-Jun-18 12:00N 34°38' E 135°11'4 8.2
2018-Jun-18 11:30N 34°37' E 135°06'3 6.5
2018-Jun-18 11:00N 34°38' E 135°10'3 6.4
2018-Jun-18 10:30N 34°41' E 135°11'0 0.0
2018-Jun-18 09:58N 34°41' E 135°11'2 5.1
2018-Jun-18 09:30N 34°38' E 135°11'4 7.3
2018-Jun-18 09:00N 34°37' E 135°07'4 8.5
2018-Jun-18 08:30N 34°39' E 135°11'1 2.5
2018-Jun-18 07:56N 34°41' E 135°11'0 0.0
2018-Jun-18 07:26N 34°41' E 135°11'0 0.0
2018-Jun-18 06:56N 34°41' E 135°11'2 5.3
2018-Jun-18 06:29N 34°38' E 135°11'1 2.8
2018-Jun-18 06:00N 34°38' E 135°09'3 6.6
2018-Jun-18 05:30N 34°41' E 135°11'0 0.0
2018-Jun-18 04:51N 34°41' E 135°11'2 5.6
2018-Jun-18 04:30N 34°39' E 135°11'4 7.3
2018-Jun-18 04:00N 34°37' E 135°08'2 3.6
2018-Jun-18 03:30N 34°38' E 135°09'3 5.8
2018-Jun-18 02:56N 34°41' E 135°11'0 0.0
2018-Jun-18 02:25N 34°41' E 135°11'0 0.0
2018-Jun-18 01:55N 34°41' E 135°11'0 0.0
2018-Jun-18 01:13N 34°41' E 135°11'0 0.0
2018-Jun-18 00:49N 34°41' E 135°11'0 0.0
2018-Jun-18 00:25N 34°41' E 135°11'0 0.0
2018-Jun-17 23:55N 34°41' E 135°11'0 0.0
2018-Jun-17 23:25N 34°41' E 135°11'0 0.0
2018-Jun-17 22:55N 34°41' E 135°11'0 0.0
2018-Jun-17 22:25N 34°41' E 135°11'0 0.0
2018-Jun-17 21:55N 34°41' E 135°11'0 0.0
2018-Jun-17 21:25N 34°41' E 135°11'0 0.0
2018-Jun-17 20:55N 34°41' E 135°11'0 0.0
2018-Jun-17 20:25N 34°41' E 135°11'0 0.0
2018-Jun-17 19:55N 34°41' E 135°11'0 0.0
2018-Jun-17 19:19N 34°41' E 135°11'0 0.0
2018-Jun-17 18:49N 34°41' E 135°11'0 0.0
2018-Jun-17 18:25N 34°41' E 135°11'0 0.0
2018-Jun-17 17:49N 34°41' E 135°11'0 0.0
2018-Jun-17 17:25N 34°41' E 135°11'0 0.0
2018-Jun-17 16:55N 34°41' E 135°11'0 0.0
2018-Jun-17 16:19N 34°41' E 135°11'0 0.0
2018-Jun-17 15:55N 34°41' E 135°11'0 0.0
2018-Jun-17 15:25N 34°41' E 135°11'0 0.0
2018-Jun-17 14:55N 34°41' E 135°11'0 0.0
2018-Jun-17 14:25N 34°41' E 135°11'0 0.0
2018-Jun-17 13:49N 34°41' E 135°11'0 0.0
2018-Jun-17 13:07N 34°41' E 135°11'0 0.0
2018-Jun-17 12:55N 34°41' E 135°11'0 0.0
2018-Jun-17 12:26N 34°41' E 135°11'3 6.4
2018-Jun-17 12:00N 34°38' E 135°11'4 8.0
2018-Jun-17 11:30N 34°37' E 135°06'3 6.5
2018-Jun-17 11:00N 34°38' E 135°10'3 5.5
2018-Jun-17 10:27N 34°41' E 135°11'0 0.0
2018-Jun-17 09:51N 34°41' E 135°11'2 6.6
2018-Jun-17 09:30N 34°39' E 135°11'3 6.5
2018-Jun-17 09:00N 34°37' E 135°07'4 7.9
2018-Jun-17 08:30N 34°40' E 135°11'1 2.2
2018-Jun-17 07:56N 34°41' E 135°11'0 0.0
2018-Jun-17 07:26N 34°41' E 135°11'0 0.0
2018-Jun-17 06:56N 34°41' E 135°11'2 5.0
2018-Jun-17 06:30N 34°39' E 135°11'1 2.8
2018-Jun-17 06:00N 34°38' E 135°10'3 6.4
2018-Jun-17 05:30N 34°41' E 135°11'0 0.0
2018-Jun-17 04:50N 34°41' E 135°11'2 6.1
2018-Jun-17 04:30N 34°39' E 135°11'4 7.8
2018-Jun-17 04:00N 34°37' E 135°07'3 5.0
2018-Jun-17 03:30N 34°38' E 135°10'3 6.2
2018-Jun-17 03:00N 34°41' E 135°11'0 0.0
2018-Jun-17 02:29N 34°41' E 135°11'0 0.0
2018-Jun-17 01:53N 34°41' E 135°11'0 0.0
2018-Jun-17 01:28N 34°41' E 135°11'0 0.0
2018-Jun-17 00:53N 34°41' E 135°11'0 0.0
2018-Jun-17 00:29N 34°41' E 135°11'0 0.0
2018-Jun-16 23:52N 34°41' E 135°11'0 0.0
2018-Jun-16 23:29N 34°41' E 135°11'0 0.0
2018-Jun-16 22:59N 34°41' E 135°11'0 0.0
2018-Jun-16 22:29N 34°41' E 135°11'0 0.0
2018-Jun-16 21:59N 34°41' E 135°11'0 0.0
2018-Jun-16 21:29N 34°41' E 135°11'0 0.0
2018-Jun-16 20:59N 34°41' E 135°11'0 0.0
2018-Jun-16 20:29N 34°41' E 135°11'0 0.0
2018-Jun-16 19:59N 34°41' E 135°11'0 0.0
2018-Jun-16 19:29N 34°41' E 135°11'0 0.0
2018-Jun-16 18:59N 34°41' E 135°11'0 0.0
2018-Jun-16 18:28N 34°41' E 135°11'0 0.0
2018-Jun-16 17:59N 34°41' E 135°11'0 0.0
2018-Jun-16 17:29N 34°41' E 135°11'0 0.0
2018-Jun-16 16:53N 34°41' E 135°11'0 0.0
2018-Jun-16 16:28N 34°41' E 135°11'0 0.0
2018-Jun-16 15:59N 34°41' E 135°11'0 0.0
2018-Jun-16 15:29N 34°41' E 135°11'0 0.0
2018-Jun-16 14:58N 34°41' E 135°11'0 0.0
2018-Jun-16 14:29N 34°41' E 135°11'0 0.0
2018-Jun-16 13:59N 34°41' E 135°11'0 0.0
2018-Jun-16 13:29N 34°41' E 135°11'0 0.0
2018-Jun-16 12:59N 34°41' E 135°11'0 0.0
2018-Jun-16 12:29N 34°41' E 135°11'2 5.0
2018-Jun-16 12:00N 34°38' E 135°11'4 7.6
2018-Jun-16 11:31N 34°37' E 135°06'4 7.2
2018-Jun-16 11:00N 34°39' E 135°11'2 4.7
2018-Jun-16 10:31N 34°41' E 135°11'0 0.0
2018-Jun-16 09:55N 34°41' E 135°11'3 6.9
2018-Jun-16 09:30N 34°38' E 135°10'2 4.7
2018-Jun-16 09:00N 34°37' E 135°08'4 8.0
2018-Jun-16 08:28N 34°40' E 135°11'1 1.3
2018-Jun-16 08:00N 34°41' E 135°11'0 0.0
2018-Jun-16 07:20N 34°41' E 135°11'0 0.0
2018-Jun-16 06:51N 34°41' E 135°11'2 5.6
2018-Jun-16 06:30N 34°39' E 135°11'1 2.6
2018-Jun-16 06:00N 34°38' E 135°10'3 4.7
2018-Jun-16 05:26N 34°41' E 135°11'0 0.0
2018-Jun-16 04:58N 34°41' E 135°11'2 4.3
2018-Jun-16 04:30N 34°39' E 135°11'4 8.4
2018-Jun-16 04:00N 34°37' E 135°07'3 5.6
2018-Jun-16 03:30N 34°38' E 135°10'3 5.8
2018-Jun-16 03:00N 34°41' E 135°11'0 0.0
2018-Jun-16 02:28N 34°41' E 135°11'0 0.0
2018-Jun-16 01:58N 34°41' E 135°11'0 0.0
2018-Jun-16 01:27N 34°41' E 135°11'0 0.0
2018-Jun-16 00:58N 34°41' E 135°11'0 0.0
2018-Jun-16 00:28N 34°41' E 135°11'0 0.0
2018-Jun-15 23:57N 34°41' E 135°11'0 0.0
2018-Jun-15 23:27N 34°41' E 135°11'0 0.0
2018-Jun-15 22:57N 34°41' E 135°11'0 0.0
2018-Jun-15 22:28N 34°41' E 135°11'0 0.0
2018-Jun-15 21:57N 34°41' E 135°11'0 0.0
2018-Jun-15 21:21N 34°41' E 135°11'0 0.0
2018-Jun-15 20:57N 34°41' E 135°11'0 0.0
2018-Jun-15 20:27N 34°41' E 135°11'0 0.0
2018-Jun-15 19:45N 34°41' E 135°11'0 0.0
2018-Jun-15 19:27N 34°41' E 135°11'0 0.0
2018-Jun-15 18:51N 34°41' E 135°11'0 0.0
2018-Jun-15 18:27N 34°41' E 135°11'0 0.0
2018-Jun-15 17:45N 34°41' E 135°11'0 0.0
2018-Jun-15 17:27N 34°41' E 135°11'0 0.0
2018-Jun-15 16:58N 34°41' E 135°11'0 0.0
2018-Jun-15 16:27N 34°41' E 135°11'0 0.0
2018-Jun-15 15:57N 34°41' E 135°11'0 0.0
2018-Jun-15 15:27N 34°41' E 135°11'0 0.0
2018-Jun-15 14:57N 34°41' E 135°11'0 0.0
2018-Jun-15 14:27N 34°41' E 135°11'0 0.0
2018-Jun-15 13:57N 34°41' E 135°11'0 0.0
2018-Jun-15 13:28N 34°41' E 135°11'0 0.0
2018-Jun-15 12:57N 34°41' E 135°11'0 0.0
2018-Jun-15 12:27N 34°41' E 135°11'2 5.0
2018-Jun-15 12:00N 34°39' E 135°11'5 9.4
2018-Jun-15 11:30N 34°37' E 135°06'3 6.8
2018-Jun-15 11:00N 34°38' E 135°10'3 6.2
2018-Jun-15 10:29N 34°41' E 135°11'0 0.0
2018-Jun-15 09:56N 34°41' E 135°11'2 5.9
2018-Jun-15 09:30N 34°38' E 135°11'4 7.1
2018-Jun-15 09:00N 34°37' E 135°07'4 8.9
2018-Jun-15 08:30N 34°40' E 135°11'1 1.9
2018-Jun-15 07:51N 34°41' E 135°11'0 0.0
2018-Jun-15 07:27N 34°41' E 135°11'0 0.0
2018-Jun-15 06:57N 34°41' E 135°11'2 5.2
2018-Jun-15 06:30N 34°39' E 135°11'1 3.0
2018-Jun-15 06:00N 34°38' E 135°10'3 6.3
2018-Jun-15 05:30N 34°41' E 135°11'0 0.0
2018-Jun-15 04:56N 34°41' E 135°11'2 4.9
2018-Jun-15 04:30N 34°39' E 135°11'3 6.4
2018-Jun-15 04:00N 34°37' E 135°08'2 3.2
2018-Jun-15 03:30N 34°38' E 135°10'3 6.4
2018-Jun-15 03:00N 34°41' E 135°11'0 0.0
2018-Jun-15 02:29N 34°41' E 135°11'0 0.0
2018-Jun-15 01:59N 34°41' E 135°11'0 0.0
2018-Jun-15 01:29N 34°41' E 135°11'0 0.0
2018-Jun-15 00:59N 34°41' E 135°11'0 0.0
2018-Jun-15 00:29N 34°41' E 135°11'0 0.0
2018-Jun-14 23:59N 34°41' E 135°11'0 0.0
2018-Jun-14 23:29N 34°41' E 135°11'0 0.0
2018-Jun-14 22:35N 34°41' E 135°11'0 0.0
2018-Jun-14 22:29N 34°41' E 135°11'0 0.0
2018-Jun-14 21:23N 34°41' E 135°11'0 0.0
2018-Jun-14 20:59N 34°41' E 135°11'0 0.0
2018-Jun-14 20:23N 34°41' E 135°11'0 0.0
2018-Jun-14 19:59N 34°41' E 135°11'0 0.0
2018-Jun-14 19:23N 34°41' E 135°11'0 0.0
2018-Jun-14 18:59N 34°41' E 135°11'0 0.0
2018-Jun-14 18:29N 34°41' E 135°11'0 0.0
2018-Jun-14 17:59N 34°41' E 135°11'0 0.0
2018-Jun-14 17:29N 34°41' E 135°11'0 0.0
2018-Jun-14 16:59N 34°41' E 135°11'0 0.0
2018-Jun-14 16:29N 34°41' E 135°11'0 0.0
2018-Jun-14 15:59N 34°41' E 135°11'0 0.0
2018-Jun-14 15:29N 34°41' E 135°11'0 0.0
2018-Jun-14 14:59N 34°41' E 135°11'0 0.0
2018-Jun-14 14:29N 34°41' E 135°11'0 0.0
2018-Jun-14 13:59N 34°41' E 135°11'0 0.0
2018-Jun-14 13:29N 34°41' E 135°11'0 0.0
2018-Jun-14 12:59N 34°41' E 135°11'0 0.0
2018-Jun-14 12:24N 34°41' E 135°11'3 6.5
2018-Jun-14 12:01N 34°38' E 135°11'3 5.5
2018-Jun-14 11:30N 34°37' E 135°08'1 2.5
2018-Jun-14 11:00N 34°38' E 135°09'3 6.4
2018-Jun-14 10:30N 34°41' E 135°11'0 0.0
2018-Jun-14 10:00N 34°41' E 135°11'3 5.5
2018-Jun-14 09:30N 34°38' E 135°11'3 6.4
2018-Jun-14 09:00N 34°37' E 135°07'4 8.5
2018-Jun-14 08:30N 34°39' E 135°11'1 2.3
2018-Jun-14 07:55N 34°41' E 135°11'0 0.0
2018-Jun-14 07:19N 34°41' E 135°11'0 0.0
2018-Jun-14 06:55N 34°41' E 135°11'3 6.5
2018-Jun-14 06:30N 34°38' E 135°11'1 1.6
2018-Jun-14 06:00N 34°38' E 135°10'3 5.9
2018-Jun-14 05:30N 34°41' E 135°11'0 0.0
2018-Jun-14 04:59N 34°41' E 135°11'2 4.8
2018-Jun-14 04:30N 34°39' E 135°11'4 8.9
2018-Jun-14 04:00N 34°37' E 135°06'3 7.0
2018-Jun-14 03:30N 34°38' E 135°10'3 5.4
2018-Jun-14 03:00N 34°41' E 135°11'0 0.0
2018-Jun-14 02:26N 34°41' E 135°11'0 0.0
2018-Jun-14 01:56N 34°41' E 135°11'0 0.0
2018-Jun-14 01:26N 34°41' E 135°11'0 0.0
2018-Jun-14 00:56N 34°41' E 135°11'0 0.0
2018-Jun-14 00:26N 34°41' E 135°11'0 0.0
2018-Jun-13 23:56N 34°41' E 135°11'0 0.0
2018-Jun-13 23:14N 34°41' E 135°11'0 0.0
2018-Jun-13 22:56N 34°41' E 135°11'0 0.0
2018-Jun-13 22:26N 34°41' E 135°11'0 0.0
2018-Jun-13 21:50N 34°41' E 135°11'0 0.0
2018-Jun-13 21:26N 34°41' E 135°11'0 0.0
2018-Jun-13 20:56N 34°41' E 135°11'0 0.0
2018-Jun-13 20:26N 34°41' E 135°11'0 0.0
2018-Jun-13 19:56N 34°41' E 135°11'0 0.0
2018-Jun-13 19:26N 34°41' E 135°11'0 0.0
2018-Jun-13 18:56N 34°41' E 135°11'0 0.0
2018-Jun-13 18:20N 34°41' E 135°11'0 0.0
2018-Jun-13 17:56N 34°41' E 135°11'0 0.0
2018-Jun-13 17:26N 34°41' E 135°11'0 0.0
2018-Jun-13 16:50N 34°41' E 135°11'0 0.0
2018-Jun-13 16:26N 34°41' E 135°11'0 0.0
2018-Jun-13 15:56N 34°41' E 135°11'0 0.0
2018-Jun-13 15:26N 34°41' E 135°11'0 0.0
2018-Jun-13 14:50N 34°41' E 135°11'0 0.0
2018-Jun-13 14:20N 34°41' E 135°11'0 0.0
2018-Jun-13 13:44N 34°41' E 135°11'0 0.0
2018-Jun-13 13:26N 34°41' E 135°11'0 0.0
2018-Jun-13 12:56N 34°41' E 135°11'0 0.0
2018-Jun-13 12:27N 34°41' E 135°11'3 6.0
2018-Jun-13 12:00N 34°38' E 135°11'4 8.1
2018-Jun-13 11:30N 34°37' E 135°06'3 6.7
2018-Jun-13 11:00N 34°38' E 135°10'3 6.3
2018-Jun-13 10:30N 34°41' E 135°11'0 0.0
2018-Jun-13 09:55N 34°41' E 135°11'3 6.5
2018-Jun-13 09:30N 34°38' E 135°11'4 7.2
2018-Jun-13 09:00N 34°37' E 135°07'4 8.8
2018-Jun-13 08:31N 34°39' E 135°11'1 2.1
2018-Jun-13 07:50N 34°41' E 135°11'0 0.0
2018-Jun-13 07:08N 34°41' E 135°11'0 0.0
2018-Jun-13 06:57N 34°41' E 135°11'3 6.7
2018-Jun-13 06:30N 34°38' E 135°10'0 0.6
2018-Jun-13 06:00N 34°38' E 135°10'3 6.2
2018-Jun-13 05:30N 34°41' E 135°11'0 0.0
2018-Jun-13 04:55N 34°41' E 135°11'2 4.0
2018-Jun-13 04:30N 34°39' E 135°11'3 5.7
2018-Jun-13 04:00N 34°37' E 135°09'1 2.3
2018-Jun-13 03:30N 34°38' E 135°10'3 6.0
2018-Jun-13 03:00N 34°41' E 135°11'0 0.0
2018-Jun-13 02:30N 34°41' E 135°11'0 0.0
2018-Jun-13 02:00N 34°41' E 135°11'0 0.0
2018-Jun-13 01:30N 34°41' E 135°11'0 0.0
2018-Jun-13 01:00N 34°41' E 135°11'0 0.0
2018-Jun-13 00:30N 34°41' E 135°11'0 0.0
2018-Jun-13 00:00N 34°41' E 135°11'0 0.0
2018-Jun-12 23:24N 34°41' E 135°11'0 0.0
2018-Jun-12 23:00N 34°41' E 135°11'0 0.0
2018-Jun-12 22:30N 34°41' E 135°11'0 0.0
2018-Jun-12 22:00N 34°41' E 135°11'0 0.0
2018-Jun-12 21:30N 34°41' E 135°11'0 0.0
2018-Jun-12 21:00N 34°41' E 135°11'0 0.0
2018-Jun-12 20:30N 34°41' E 135°11'0 0.0
2018-Jun-12 20:00N 34°41' E 135°11'0 0.0
2018-Jun-12 19:30N 34°41' E 135°11'0 0.0
2018-Jun-12 19:00N 34°41' E 135°11'0 0.0
2018-Jun-12 18:30N 34°41' E 135°11'0 0.0
2018-Jun-12 18:00N 34°41' E 135°11'0 0.0
2018-Jun-12 17:30N 34°41' E 135°11'0 0.0
2018-Jun-12 17:00N 34°41' E 135°11'0 0.0
2018-Jun-12 16:30N 34°41' E 135°11'0 0.0
2018-Jun-12 16:00N 34°41' E 135°11'0 0.0
2018-Jun-12 15:30N 34°41' E 135°11'0 0.0
2018-Jun-12 15:00N 34°41' E 135°11'0 0.0
2018-Jun-12 14:24N 34°41' E 135°11'0 0.0
2018-Jun-12 14:00N 34°41' E 135°11'0 0.0
2018-Jun-12 13:30N 34°41' E 135°11'0 0.0
2018-Jun-12 12:54N 34°41' E 135°11'0 0.0
2018-Jun-12 12:30N 34°41' E 135°11'3 5.1
2018-Jun-12 12:00N 34°38' E 135°11'4 8.0
2018-Jun-12 11:30N 34°37' E 135°06'3 5.8
2018-Jun-12 11:00N 34°38' E 135°09'3 6.5
2018-Jun-12 10:31N 34°41' E 135°11'0 0.0
2018-Jun-12 09:58N 34°41' E 135°11'3 6.2
2018-Jun-12 09:30N 34°38' E 135°10'3 5.8
2018-Jun-12 09:00N 34°37' E 135°07'4 8.7
2018-Jun-12 08:30N 34°40' E 135°11'1 2.2
2018-Jun-12 07:57N 34°41' E 135°11'0 0.0
2018-Jun-12 07:27N 34°41' E 135°11'0 0.0
2018-Jun-12 06:58N 34°41' E 135°11'3 6.2
2018-Jun-12 06:30N 34°38' E 135°10'0 0.5
2018-Jun-12 06:00N 34°38' E 135°10'3 5.5
2018-Jun-12 05:29N 34°41' E 135°11'0 0.0
2018-Jun-12 04:50N 34°41' E 135°11'2 6.3
2018-Jun-12 04:30N 34°39' E 135°11'4 9.0
2018-Jun-12 04:00N 34°37' E 135°06'3 6.1
2018-Jun-12 03:30N 34°38' E 135°10'3 6.0
2018-Jun-12 03:00N 34°41' E 135°11'0 0.0
2018-Jun-12 02:26N 34°41' E 135°11'0 0.0
2018-Jun-12 01:56N 34°41' E 135°11'0 0.0
2018-Jun-12 01:20N 34°41' E 135°11'0 0.0
2018-Jun-12 00:56N 34°41' E 135°11'0 0.0
2018-Jun-12 00:26N 34°41' E 135°11'0 0.0
2018-Jun-11 23:56N 34°41' E 135°11'0 0.0
2018-Jun-11 23:14N 34°41' E 135°11'0 0.0
2018-Jun-11 22:56N 34°41' E 135°11'0 0.0
2018-Jun-11 22:26N 34°41' E 135°11'0 0.0
2018-Jun-11 21:56N 34°41' E 135°11'0 0.0
2018-Jun-11 21:08N 34°41' E 135°11'0 0.0
2018-Jun-11 20:44N 34°41' E 135°11'0 0.0
2018-Jun-11 20:20N 34°41' E 135°11'0 0.0
2018-Jun-11 19:56N 34°41' E 135°11'0 0.0
2018-Jun-11 19:26N 34°41' E 135°11'0 0.0
2018-Jun-11 18:56N 34°41' E 135°11'0 0.0
2018-Jun-11 18:20N 34°41' E 135°11'0 0.0
2018-Jun-11 17:56N 34°41' E 135°11'0 0.0
2018-Jun-11 17:26N 34°41' E 135°11'0 0.0
2018-Jun-11 16:56N 34°41' E 135°11'0 0.0
2018-Jun-11 16:20N 34°41' E 135°11'0 0.0
2018-Jun-11 15:56N 34°41' E 135°11'0 0.0
2018-Jun-11 15:26N 34°41' E 135°11'0 0.0
2018-Jun-11 14:56N 34°41' E 135°11'0 0.0
2018-Jun-11 14:26N 34°41' E 135°11'0 0.0
2018-Jun-11 13:56N 34°41' E 135°11'0 0.0
2018-Jun-11 13:26N 34°41' E 135°11'0 0.0
2018-Jun-11 12:50N 34°41' E 135°11'0 0.0
2018-Jun-11 12:26N 34°41' E 135°11'2 4.8
2018-Jun-11 12:01N 34°39' E 135°11'4 7.5
2018-Jun-11 11:30N 34°37' E 135°07'2 4.2
2018-Jun-11 11:00N 34°38' E 135°10'3 6.3
2018-Jun-11 10:30N 34°41' E 135°11'0 0.0
2018-Jun-11 09:58N 34°41' E 135°11'2 5.4
2018-Jun-11 09:30N 34°38' E 135°11'4 7.4
2018-Jun-11 09:01N 34°37' E 135°07'4 8.7
2018-Jun-11 08:30N 34°39' E 135°11'1 2.2
2018-Jun-11 07:54N 34°41' E 135°11'0 0.0
2018-Jun-11 07:30N 34°41' E 135°11'0 0.0
2018-Jun-11 07:00N 34°41' E 135°11'3 5.4
2018-Jun-11 06:30N 34°38' E 135°11'1 1.9
2018-Jun-11 06:01N 34°38' E 135°10'3 5.9
2018-Jun-11 05:29N 34°41' E 135°11'0 0.0
2018-Jun-11 04:59N 34°41' E 135°11'2 4.6
2018-Jun-11 04:31N 34°39' E 135°11'4 9.0
2018-Jun-11 04:00N 34°37' E 135°06'3 6.4
2018-Jun-11 03:30N 34°38' E 135°10'3 5.6
2018-Jun-11 03:00N 34°41' E 135°11'0 0.0
2018-Jun-11 02:31N 34°41' E 135°11'0 0.0
2018-Jun-11 02:01N 34°41' E 135°11'0 0.0
2018-Jun-11 01:30N 34°41' E 135°11'0 0.0
2018-Jun-11 01:00N 34°41' E 135°11'0 0.0
2018-Jun-11 00:31N 34°41' E 135°11'0 0.0
2018-Jun-11 00:01N 34°41' E 135°11'0 0.0
2018-Jun-10 23:30N 34°41' E 135°11'0 0.0
2018-Jun-10 23:00N 34°41' E 135°11'0 0.0
2018-Jun-10 22:28N 34°41' E 135°11'0 0.0
2018-Jun-10 22:00N 34°41' E 135°11'0 0.0
2018-Jun-10 21:30N 34°41' E 135°11'0 0.0
2018-Jun-10 21:01N 34°41' E 135°11'0 0.0
2018-Jun-10 20:30N 34°41' E 135°11'0 0.0
2018-Jun-10 20:00N 34°41' E 135°11'0 0.0
2018-Jun-10 19:30N 34°41' E 135°11'0 0.0
2018-Jun-10 19:00N 34°41' E 135°11'0 0.0
2018-Jun-10 18:31N 34°41' E 135°11'0 0.0
2018-Jun-10 18:00N 34°41' E 135°11'0 0.0
2018-Jun-10 17:31N 34°41' E 135°11'0 0.0
2018-Jun-10 17:01N 34°41' E 135°11'0 0.0
2018-Jun-10 16:31N 34°41' E 135°11'0 0.0
2018-Jun-10 16:01N 34°41' E 135°11'0 0.0
2018-Jun-10 15:30N 34°41' E 135°11'0 0.0
2018-Jun-10 15:01N 34°41' E 135°11'0 0.0
2018-Jun-10 14:31N 34°41' E 135°11'0 0.0
2018-Jun-10 13:30N 34°41' E 135°11'0 0.0
2018-Jun-10 13:01N 34°41' E 135°11'0 0.0
2018-Jun-10 12:31N 34°41' E 135°11'3 5.1
2018-Jun-10 12:00N 34°38' E 135°10'4 7.6
2018-Jun-10 11:30N 34°36' E 135°06'3 6.9
2018-Jun-10 11:01N 34°38' E 135°10'3 5.8
2018-Jun-10 10:31N 34°41' E 135°11'0 0.0
2018-Jun-10 09:56N 34°41' E 135°11'3 5.9
2018-Jun-10 09:30N 34°38' E 135°11'3 6.5
2018-Jun-10 09:00N 34°37' E 135°07'4 8.6
2018-Jun-10 08:30N 34°40' E 135°11'1 2.0
2018-Jun-10 07:57N 34°41' E 135°11'0 0.0
2018-Jun-10 07:27N 34°41' E 135°11'0 0.0
2018-Jun-10 06:57N 34°41' E 135°11'2 5.0
2018-Jun-10 06:30N 34°39' E 135°11'1 2.6
2018-Jun-10 06:00N 34°38' E 135°10'3 5.8
2018-Jun-10 05:30N 34°41' E 135°11'0 0.0
2018-Jun-10 04:57N 34°41' E 135°11'2 5.0
2018-Jun-10 04:30N 34°39' E 135°11'4 7.8
2018-Jun-10 03:59N 34°37' E 135°07'3 5.6
2018-Jun-10 03:30N 34°38' E 135°10'3 6.1
2018-Jun-10 03:00N 34°41' E 135°11'0 0.0
2018-Jun-10 02:30N 34°41' E 135°11'0 0.0
2018-Jun-10 01:54N 34°41' E 135°11'0 0.0
2018-Jun-10 01:30N 34°41' E 135°11'0 0.0
2018-Jun-10 01:00N 34°41' E 135°11'0 0.0
2018-Jun-10 00:24N 34°41' E 135°11'0 0.0
2018-Jun-09 23:48N 34°41' E 135°11'0 0.0
2018-Jun-09 23:24N 34°41' E 135°11'0 0.0
2018-Jun-09 23:00N 34°41' E 135°11'0 0.0
2018-Jun-09 22:30N 34°41' E 135°11'0 0.0
2018-Jun-09 22:00N 34°41' E 135°11'0 0.0
2018-Jun-09 21:30N 34°41' E 135°11'0 0.0
2018-Jun-09 20:54N 34°41' E 135°11'0 0.0
2018-Jun-09 20:30N 34°41' E 135°11'0 0.0
2018-Jun-09 20:00N 34°41' E 135°11'0 0.0
2018-Jun-09 19:30N 34°41' E 135°11'0 0.0
2018-Jun-09 18:54N 34°41' E 135°11'0 0.0
2018-Jun-09 18:30N 34°41' E 135°11'0 0.0
2018-Jun-09 18:00N 34°41' E 135°11'  

Dump ship's entire track history